Time;durP1;ratioP1;P1;durP2;ratioP2;P2;SDS_P1;SDS_P2;PMS_P1;PMS_P2;Temp;Humidity;BMP_temperature;BMP_pressure;BME280_temperature;BME280_humidity;BME280_pressure;Samples;Min_cycle;Max_cycle;Signal;HPM_P1;HPM_P2
2021/12/06 00:00:34;;;;;;;65.57;20.80;;;;;;;;;;4875959;29;20037;-67
2021/12/06 00:03:06;;;;;;;44.60;17.67;;;;;;;;;;4859481;29;20045;-70
2021/12/06 00:05:32;;;;;;;30.17;16.50;;;;;;;;;;4859233;29;20033;-66
2021/12/06 00:07:58;;;;;;;31.30;16.80;;;;;;;;;;4859669;29;20045;-67
2021/12/06 00:10:25;;;;;;;26.00;15.57;;;;;;;;;;4869479;29;20041;-66
2021/12/06 00:12:50;;;;;;;26.45;14.77;;;;;;;;;;4871220;29;20033;-68
2021/12/06 00:15:16;;;;;;;31.20;16.65;;;;;;;;;;4877078;29;20037;-65
2021/12/06 00:17:42;;;;;;;27.77;16.25;;;;;;;;;;4867457;29;20070;-68
2021/12/06 00:20:11;;;;;;;37.60;17.33;;;;;;;;;;4875106;29;20047;-66
2021/12/06 00:22:37;;;;;;;29.48;16.58;;;;;;;;;;4875931;29;20061;-68
2021/12/06 00:25:04;;;;;;;33.50;18.92;;;;;;;;;;4876062;29;20041;-65
2021/12/06 00:27:29;;;;;;;34.53;18.00;;;;;;;;;;4875871;29;20108;-65
2021/12/06 00:29:56;;;;;;;29.23;17.27;;;;;;;;;;4880565;29;20116;-70
2021/12/06 00:32:23;;;;;;;35.13;19.58;;;;;;;;;;4881570;29;20111;-69
2021/12/06 00:34:49;;;;;;;39.45;20.02;;;;;;;;;;4881071;29;20048;-69
2021/12/06 00:37:29;;;;;;;40.20;21.73;;;;;;;;;;4881146;29;20176;-69
2021/12/06 00:39:58;;;;;;;44.78;21.80;;;;;;;;;;4879981;29;20045;-68
2021/12/06 00:42:27;;;;;;;44.28;22.50;;;;;;;;;;4881168;29;20052;-68
2021/12/06 00:44:54;;;;;;;39.58;22.50;;;;;;;;;;4879167;29;20033;-66
2021/12/06 00:47:20;;;;;;;41.88;24.15;;;;;;;;;;4881458;29;20036;-70
2021/12/06 00:49:47;;;;;;;46.80;25.65;;;;;;;;;;4879815;29;20041;-66
2021/12/06 00:52:14;;;;;;;49.42;25.15;;;;;;;;;;4880910;29;20096;-67
2021/12/06 00:54:41;;;;;;;43.80;24.05;;;;;;;;;;4879169;29;20467;-68
2021/12/06 00:57:09;;;;;;;45.65;24.73;;;;;;;;;;4878469;29;20120;-66
2021/12/06 00:59:37;;;;;;;44.72;24.55;;;;;;;;;;4880390;29;20481;-67
2021/12/06 01:02:04;;;;;;;39.20;22.27;;;;;;;;;;4895572;29;20045;-68
2021/12/06 01:04:35;;;;;;;44.17;24.00;;;;;;;;;;4880012;29;20033;-68
2021/12/06 01:07:02;;;;;;;44.83;24.38;;;;;;;;;;4881042;29;20045;-69
2021/12/06 01:09:30;;;;;;;46.50;24.20;;;;;;;;;;4880008;29;20044;-70
2021/12/06 01:11:56;;;;;;;53.47;25.33;;;;;;;;;;4880595;29;20037;-69
2021/12/06 01:14:23;;;;;;;46.45;24.42;;;;;;;;;;4881138;29;20029;-73
2021/12/06 01:16:49;;;;;;;46.20;23.25;;;;;;;;;;4879567;29;20097;-67
2021/12/06 01:19:16;;;;;;;39.08;21.92;;;;;;;;;;4873177;29;20044;-74
2021/12/06 01:21:49;;;;;;;44.70;24.15;;;;;;;;;;4879893;29;20040;-72
2021/12/06 01:24:20;;;;;;;42.13;20.92;;;;;;;;;;4879804;29;20065;-73
2021/12/06 01:30:22;;;;;;;38.58;20.77;;;;;;;;;;4879161;29;20041;-67
2021/12/06 01:40:11;;;;;;;40.85;21.55;;;;;;;;;;4880406;29;20092;-67
2021/12/06 01:42:37;;;;;;;50.13;25.27;;;;;;;;;;4884858;29;20029;-67
2021/12/06 01:45:04;;;;;;;52.95;26.00;;;;;;;;;;4879262;29;20143;-67
2021/12/06 01:47:35;;;;;;;56.70;26.55;;;;;;;;;;4879285;29;20097;-67
2021/12/06 01:50:16;;;;;;;61.20;28.75;;;;;;;;;;4880976;29;20044;-67
2021/12/06 01:52:48;;;;;;;61.15;27.08;;;;;;;;;;4878099;29;20560;-67
2021/12/06 01:55:18;;;;;;;53.55;24.77;;;;;;;;;;4868017;29;20044;-67
2021/12/06 01:57:45;;;;;;;52.72;24.58;;;;;;;;;;4894303;29;20041;-68
2021/12/06 02:00:20;;;;;;;48.15;23.92;;;;;;;;;;4894378;29;20037;-66
2021/12/06 02:02:52;;;;;;;50.80;24.75;;;;;;;;;;4894071;29;20500;-65
2021/12/06 02:05:23;;;;;;;50.92;26.00;;;;;;;;;;4879024;29;20050;-66
2021/12/06 02:07:50;;;;;;;55.63;24.55;;;;;;;;;;4888996;29;20037;-68
2021/12/06 02:10:18;;;;;;;47.47;22.77;;;;;;;;;;4879427;29;20112;-68
2021/12/06 02:12:46;;;;;;;45.92;24.73;;;;;;;;;;4893987;29;20041;-68
2021/12/06 02:15:57;;;;;;;50.80;23.98;;;;;;;;;;4878787;29;20088;-65
2021/12/06 02:18:09;;;;;;;43.42;22.95;;;;;;;;;;4875567;29;20048;-69
2021/12/06 02:20:43;;;;;;;48.67;23.98;;;;;;;;;;4878846;29;20041;-66
2021/12/06 02:23:10;;;;;;;45.97;22.83;;;;;;;;;;4893757;29;20048;-65
2021/12/06 02:25:36;;;;;;;47.88;21.75;;;;;;;;;;4879399;29;20366;-65
2021/12/06 02:28:02;;;;;;;46.85;22.17;;;;;;;;;;4894024;29;20535;-69
2021/12/06 02:30:29;;;;;;;44.33;20.80;;;;;;;;;;4878634;29;20066;-67
2021/12/06 02:32:55;;;;;;;62.00;22.58;;;;;;;;;;4893671;29;20040;-70
2021/12/06 02:35:23;;;;;;;50.00;20.60;;;;;;;;;;4878116;29;20029;-67
2021/12/06 02:37:53;;;;;;;48.03;21.52;;;;;;;;;;4878271;29;20484;-66
2021/12/06 02:40:24;;;;;;;40.00;20.98;;;;;;;;;;4893552;29;20486;-65
2021/12/06 02:42:51;;;;;;;91.72;21.27;;;;;;;;;;4894177;29;20037;-66
2021/12/06 02:45:21;;;;;;;50.55;18.85;;;;;;;;;;4893913;29;20471;-71
2021/12/06 02:47:52;;;;;;;38.03;21.00;;;;;;;;;;4892772;29;20389;-66
2021/12/06 02:50:26;;;;;;;41.22;21.55;;;;;;;;;;4893540;29;20037;-66
2021/12/06 02:52:54;;;;;;;39.88;19.98;;;;;;;;;;4878546;29;20112;-66
2021/12/06 02:58:02;;;;;;;43.25;17.83;;;;;;;;;;4879359;29;20048;-67
2021/12/06 03:00:29;;;;;;;37.53;17.70;;;;;;;;;;4879087;29;20116;-66
2021/12/06 03:02:55;;;;;;;42.17;20.45;;;;;;;;;;4878708;29;20102;-65
2021/12/06 03:05:22;;;;;;;62.40;21.40;;;;;;;;;;4893641;29;20040;-65
2021/12/06 03:07:52;;;;;;;39.28;21.27;;;;;;;;;;4878930;29;20029;-67
2021/12/06 03:10:18;;;;;;;38.72;20.65;;;;;;;;;;4878544;29;20480;-65
2021/12/06 03:12:44;;;;;;;48.75;22.35;;;;;;;;;;4878601;29;20104;-66
2021/12/06 03:15:11;;;;;;;73.18;23.77;;;;;;;;;;4892796;29;20045;-67
2021/12/06 03:17:37;;;;;;;38.90;20.98;;;;;;;;;;4878477;29;20460;-66
2021/12/06 03:20:07;;;;;;;36.85;20.75;;;;;;;;;;4878731;29;20433;-66
2021/12/06 03:22:35;;;;;;;45.17;21.10;;;;;;;;;;4893197;29;20041;-66
2021/12/06 03:25:07;;;;;;;40.08;21.75;;;;;;;;;;4878522;29;20032;-66
2021/12/06 03:27:34;;;;;;;47.70;21.60;;;;;;;;;;4892787;29;20619;-66
2021/12/06 03:29:59;;;;;;;42.95;23.00;;;;;;;;;;4878885;29;20465;-67
2021/12/06 03:32:25;;;;;;;41.60;22.60;;;;;;;;;;4876663;29;20050;-66
2021/12/06 03:34:51;;;;;;;35.72;19.90;;;;;;;;;;4892942;29;20382;-66
2021/12/06 03:37:18;;;;;;;39.40;21.50;;;;;;;;;;4877465;29;20037;-65
2021/12/06 03:39:47;;;;;;;39.72;19.83;;;;;;;;;;4892086;29;20041;-67
2021/12/06 03:42:22;;;;;;;44.17;21.52;;;;;;;;;;4892858;29;20044;-68
2021/12/06 03:44:49;;;;;;;37.97;20.70;;;;;;;;;;4892641;29;20467;-66
2021/12/06 03:47:21;;;;;;;46.70;21.80;;;;;;;;;;4891815;29;20029;-65
2021/12/06 03:49:47;;;;;;;41.17;22.13;;;;;;;;;;4878110;29;20041;-69
2021/12/06 03:52:14;;;;;;;47.00;21.67;;;;;;;;;;4876751;29;20104;-65
2021/12/06 03:54:46;;;;;;;41.72;22.63;;;;;;;;;;4890111;29;20452;-67
2021/12/06 03:57:12;;;;;;;44.20;22.33;;;;;;;;;;4836975;29;20057;-66
2021/12/06 03:59:41;;;;;;;45.65;23.20;;;;;;;;;;4821807;29;20082;-65
2021/12/06 04:02:08;;;;;;;43.22;22.00;;;;;;;;;;4822860;29;20057;-65
2021/12/06 04:04:35;;;;;;;40.65;21.73;;;;;;;;;;4836562;29;20042;-66
2021/12/06 04:07:02;;;;;;;51.75;24.15;;;;;;;;;;4822192;29;20528;-67
2021/12/06 04:09:30;;;;;;;65.40;23.77;;;;;;;;;;4821360;29;20038;-66
2021/12/06 04:11:57;;;;;;;67.80;23.15;;;;;;;;;;4836784;29;20088;-66
2021/12/06 04:14:22;;;;;;;81.13;25.13;;;;;;;;;;4836969;29;20500;-68
2021/12/06 04:16:49;;;;;;;169.88;25.67;;;;;;;;;;4820952;29;20042;-65
2021/12/06 04:19:17;;;;;;;156.13;29.25;;;;;;;;;;4821126;29;20063;-65
2021/12/06 04:21:44;;;;;;;65.32;21.42;;;;;;;;;;4821286;29;20130;-65
2021/12/06 04:24:12;;;;;;;135.23;26.25;;;;;;;;;;4853230;29;20034;-68
2021/12/06 04:26:39;;;;;;;139.10;23.98;;;;;;;;;;4853169;29;20041;-68
2021/12/06 04:29:06;;;;;;;101.80;25.92;;;;;;;;;;4839650;29;20041;-68
2021/12/06 04:31:42;;;;;;;49.22;23.00;;;;;;;;;;4854285;29;20044;-66
2021/12/06 04:34:09;;;;;;;103.18;24.27;;;;;;;;;;4854897;29;20034;-66
2021/12/06 04:36:37;;;;;;;51.25;23.95;;;;;;;;;;4854914;29;20073;-70
2021/12/06 04:39:06;;;;;;;81.15;20.77;;;;;;;;;;4854518;29;20147;-66
2021/12/06 04:41:32;;;;;;;59.63;19.30;;;;;;;;;;4855034;29;20033;-67
2021/12/06 04:43:58;;;;;;;68.55;20.77;;;;;;;;;;4838261;29;20113;-67
2021/12/06 04:46:24;;;;;;;37.85;18.08;;;;;;;;;;4840616;29;20500;-67
2021/12/06 04:48:50;;;;;;;52.65;20.25;;;;;;;;;;4854554;29;20045;-66
2021/12/06 04:51:17;;;;;;;70.82;21.35;;;;;;;;;;4854636;29;20030;-66
2021/12/06 04:53:43;;;;;;;41.80;19.58;;;;;;;;;;4854656;29;20430;-66
2021/12/06 04:56:27;;;;;;;48.85;20.48;;;;;;;;;;4854511;29;20026;-67
2021/12/06 04:59:12;;;;;;;30.27;17.38;;;;;;;;;;4854726;29;20129;-66
2021/12/06 05:01:39;;;;;;;49.72;19.48;;;;;;;;;;4853736;29;20037;-67
2021/12/06 05:04:11;;;;;;;35.53;19.55;;;;;;;;;;4840419;29;20500;-66
2021/12/06 05:06:40;;;;;;;34.58;19.00;;;;;;;;;;4840189;29;20038;-67
2021/12/06 05:09:26;;;;;;;41.00;21.42;;;;;;;;;;4854028;29;20040;-65
2021/12/06 05:11:52;;;;;;;39.90;20.88;;;;;;;;;;4840281;29;20501;-69
2021/12/06 05:14:19;;;;;;;36.10;20.75;;;;;;;;;;4839068;29;20117;-66
2021/12/06 05:16:46;;;;;;;41.90;23.02;;;;;;;;;;4856108;29;20452;-70
2021/12/06 05:19:13;;;;;;;38.65;19.77;;;;;;;;;;4857728;29;20033;-68
2021/12/06 05:21:40;;;;;;;49.90;19.70;;;;;;;;;;4857407;29;20053;-68
2021/12/06 05:24:07;;;;;;;38.58;19.30;;;;;;;;;;4857577;29;20030;-69
2021/12/06 05:26:34;;;;;;;47.05;20.67;;;;;;;;;;4842378;29;20058;-69
2021/12/06 05:29:04;;;;;;;40.28;22.00;;;;;;;;;;4857793;29;20580;-69
2021/12/06 05:31:33;;;;;;;39.83;19.77;;;;;;;;;;4857452;29;20106;-69
2021/12/06 05:34:02;;;;;;;48.22;20.55;;;;;;;;;;4857312;29;20050;-66
2021/12/06 05:36:28;;;;;;;37.67;20.98;;;;;;;;;;4843296;29;20069;-65
2021/12/06 05:38:55;;;;;;;36.03;18.05;;;;;;;;;;4843132;29;20069;-65
2021/12/06 05:41:21;;;;;;;32.67;17.13;;;;;;;;;;4843527;29;20048;-66
2021/12/06 05:43:47;;;;;;;43.20;19.48;;;;;;;;;;4843157;29;20469;-71
2021/12/06 05:46:14;;;;;;;45.45;19.05;;;;;;;;;;4842985;29;20409;-66
2021/12/06 05:48:39;;;;;;;37.30;19.45;;;;;;;;;;4843267;29;20094;-66
2021/12/06 05:51:06;;;;;;;37.53;17.75;;;;;;;;;;4843296;29;20074;-66
2021/12/06 05:53:32;;;;;;;33.33;16.50;;;;;;;;;;4842637;29;20521;-66
2021/12/06 05:55:58;;;;;;;40.35;19.23;;;;;;;;;;4842322;29;20105;-67
2021/12/06 05:58:29;;;;;;;33.13;17.73;;;;;;;;;;4843046;29;20540;-71
2021/12/06 06:00:56;;;;;;;47.85;19.05;;;;;;;;;;4842573;29;20478;-69
2021/12/06 06:03:23;;;;;;;64.00;23.17;;;;;;;;;;4837550;29;20102;-71
2021/12/06 06:05:49;;;;;;;37.35;19.25;;;;;;;;;;4836377;29;20049;-70
2021/12/06 06:08:16;;;;;;;42.30;18.00;;;;;;;;;;4840719;29;20110;-69
2021/12/06 06:10:42;;;;;;;28.52;16.27;;;;;;;;;;4843482;29;20129;-72
2021/12/06 06:13:08;;;;;;;47.40;19.73;;;;;;;;;;4843241;29;20117;-70
2021/12/06 06:15:35;;;;;;;41.70;20.88;;;;;;;;;;4843825;29;20508;-71
2021/12/06 06:18:02;;;;;;;64.38;24.08;;;;;;;;;;4843292;29;20430;-69
2021/12/06 06:20:40;;;;;;;48.97;24.42;;;;;;;;;;4843582;29;20060;-69
2021/12/06 06:23:06;;;;;;;63.58;25.38;;;;;;;;;;4843246;29;20046;-69
2021/12/06 06:25:33;;;;;;;53.75;26.38;;;;;;;;;;4843895;29;20033;-71
2021/12/06 06:27:59;;;;;;;56.33;23.45;;;;;;;;;;4842990;29;20030;-70
2021/12/06 06:30:25;;;;;;;53.65;24.50;;;;;;;;;;4841203;29;20471;-69
2021/12/06 06:32:51;;;;;;;30.95;19.15;;;;;;;;;;4843318;29;20125;-70
2021/12/06 06:35:18;;;;;;;38.22;22.08;;;;;;;;;;4843443;29;20470;-70
2021/12/06 06:37:44;;;;;;;39.88;21.52;;;;;;;;;;4842922;29;20155;-72
2021/12/06 06:40:10;;;;;;;37.20;20.73;;;;;;;;;;4843318;29;20472;-70
2021/12/06 06:42:37;;;;;;;45.30;19.92;;;;;;;;;;4844614;29;20045;-69
2021/12/06 06:45:04;;;;;;;31.35;18.83;;;;;;;;;;4843332;29;20030;-71
2021/12/06 06:47:30;;;;;;;33.22;20.35;;;;;;;;;;4843046;29;20371;-69
2021/12/06 06:49:56;;;;;;;39.08;19.98;;;;;;;;;;4842976;29;20111;-71
2021/12/06 06:52:22;;;;;;;35.67;19.67;;;;;;;;;;4843337;29;20049;-72
2021/12/06 06:54:48;;;;;;;32.15;17.17;;;;;;;;;;4843168;29;20022;-70
2021/12/06 06:57:14;;;;;;;29.98;17.77;;;;;;;;;;4842396;29;20057;-69
2021/12/06 06:59:39;;;;;;;32.10;17.20;;;;;;;;;;4842598;29;20026;-71
2021/12/06 07:02:05;;;;;;;30.52;17.13;;;;;;;;;;4842352;29;20061;-70
2021/12/06 07:04:31;;;;;;;36.30;17.98;;;;;;;;;;4842558;29;20045;-69
2021/12/06 07:06:57;;;;;;;29.85;17.15;;;;;;;;;;4842278;29;20113;-70
2021/12/06 07:09:23;;;;;;;29.33;19.17;;;;;;;;;;4836830;29;20080;-69
2021/12/06 07:11:51;;;;;;;34.42;20.38;;;;;;;;;;4842815;29;20038;-69
2021/12/06 07:14:17;;;;;;;31.92;19.02;;;;;;;;;;4842487;29;20407;-71
2021/12/06 07:16:45;;;;;;;28.65;18.13;;;;;;;;;;4842494;29;20038;-70
2021/12/06 07:19:11;;;;;;;37.75;20.30;;;;;;;;;;4842669;29;20055;-75
2021/12/06 07:21:37;;;;;;;37.15;19.58;;;;;;;;;;4842249;29;20034;-75
2021/12/06 07:24:04;;;;;;;37.03;20.30;;;;;;;;;;4842249;29;20034;-70
2021/12/06 07:26:31;;;;;;;35.35;20.55;;;;;;;;;;4842657;29;20053;-69
2021/12/06 07:28:57;;;;;;;33.08;19.52;;;;;;;;;;4842245;29;20064;-70
2021/12/06 07:31:24;;;;;;;36.33;22.98;;;;;;;;;;4842511;29;20065;-70
2021/12/06 07:33:53;;;;;;;38.70;23.20;;;;;;;;;;4842104;29;20034;-69
2021/12/06 07:36:21;;;;;;;67.30;32.17;;;;;;;;;;4841838;29;20042;-70
2021/12/06 07:38:48;;;;;;;62.13;30.17;;;;;;;;;;4840819;29;20022;-70
2021/12/06 07:41:16;;;;;;;59.28;27.83;;;;;;;;;;4837870;29;20038;-69
2021/12/06 07:43:42;;;;;;;50.15;25.60;;;;;;;;;;4824941;29;20022;-70
2021/12/06 07:46:09;;;;;;;53.97;27.42;;;;;;;;;;4823683;29;20439;-70
2021/12/06 07:48:36;;;;;;;64.28;28.30;;;;;;;;;;4823598;29;20041;-70
2021/12/06 07:51:05;;;;;;;54.58;25.02;;;;;;;;;;4823851;29;20050;-70
2021/12/06 07:53:32;;;;;;;56.25;25.27;;;;;;;;;;4840161;29;20082;-68
2021/12/06 07:55:58;;;;;;;50.05;24.35;;;;;;;;;;4841489;29;20483;-69
2021/12/06 07:58:24;;;;;;;46.83;22.08;;;;;;;;;;4841206;29;20123;-70
2021/12/06 08:00:51;;;;;;;35.45;19.45;;;;;;;;;;4841181;29;20170;-67
2021/12/06 08:03:20;;;;;;;44.05;20.92;;;;;;;;;;4841799;29;20133;-70
2021/12/06 08:05:48;;;;;;;30.38;19.73;;;;;;;;;;4855745;29;20045;-70
2021/12/06 08:08:26;;;;;;;32.90;18.40;;;;;;;;;;4841451;29;20029;-71
2021/12/06 08:10:56;;;;;;;44.10;20.50;;;;;;;;;;4844711;29;20042;-76
2021/12/06 08:13:27;;;;;;;36.22;18.38;;;;;;;;;;4855954;29;20041;-72
2021/12/06 08:15:56;;;;;;;28.40;19.13;;;;;;;;;;4841462;29;20046;-70
2021/12/06 08:18:22;;;;;;;29.77;18.27;;;;;;;;;;4840728;29;20037;-76
2021/12/06 08:20:49;;;;;;;33.40;18.98;;;;;;;;;;4836373;29;20042;-74
2021/12/06 08:23:16;;;;;;;34.38;19.42;;;;;;;;;;4841292;29;20022;-73
2021/12/06 08:25:44;;;;;;;30.17;18.88;;;;;;;;;;4840371;29;20405;-71
2021/12/06 08:28:10;;;;;;;27.92;18.85;;;;;;;;;;4837750;29;20040;-73
2021/12/06 08:30:35;;;;;;;29.48;18.77;;;;;;;;;;4839784;29;20072;-69
2021/12/06 08:33:04;;;;;;;35.28;19.85;;;;;;;;;;4838697;29;20058;-69
2021/12/06 08:35:31;;;;;;;35.58;21.40;;;;;;;;;;4839253;29;20377;-72
2021/12/06 08:37:59;;;;;;;38.00;21.88;;;;;;;;;;4836279;29;20106;-71
2021/12/06 08:40:26;;;;;;;43.10;19.35;;;;;;;;;;4839792;29;20094;-72
2021/12/06 08:42:52;;;;;;;42.67;23.17;;;;;;;;;;4823052;29;20041;-73
2021/12/06 08:45:19;;;;;;;39.70;22.73;;;;;;;;;;4823136;29;20441;-69
2021/12/06 08:47:45;;;;;;;39.88;24.02;;;;;;;;;;4836041;29;20090;-71
2021/12/06 08:50:17;;;;;;;37.80;20.80;;;;;;;;;;4839931;29;20053;-72
2021/12/06 08:52:43;;;;;;;42.00;24.08;;;;;;;;;;4844480;29;20367;-69
2021/12/06 08:55:10;;;;;;;50.63;23.83;;;;;;;;;;4844149;29;20033;-71
2021/12/06 08:57:36;;;;;;;39.95;23.88;;;;;;;;;;4843721;29;20487;-68
2021/12/06 09:00:07;;;;;;;41.00;24.02;;;;;;;;;;4842779;29;20065;-71
2021/12/06 09:02:33;;;;;;;40.28;25.50;;;;;;;;;;4844192;29;20453;-70
2021/12/06 09:04:59;;;;;;;47.97;23.42;;;;;;;;;;4844447;29;20030;-70
2021/12/06 09:07:26;;;;;;;41.20;24.52;;;;;;;;;;4844831;29;20101;-69
2021/12/06 09:09:55;;;;;;;44.13;24.95;;;;;;;;;;4826691;29;20454;-71
2021/12/06 09:12:27;;;;;;;51.22;25.50;;;;;;;;;;4825932;29;20490;-70
2021/12/06 09:14:56;;;;;;;46.28;25.92;;;;;;;;;;4826418;29;20411;-70
2021/12/06 09:17:22;;;;;;;46.83;25.77;;;;;;;;;;4825840;29;20029;-70
2021/12/06 09:19:49;;;;;;;37.97;23.25;;;;;;;;;;4825796;29;20343;-69
2021/12/06 09:22:16;;;;;;;39.47;24.55;;;;;;;;;;4826065;29;20050;-71
2021/12/06 09:24:42;;;;;;;36.65;23.58;;;;;;;;;;4825734;29;20046;-76
2021/12/06 09:27:09;;;;;;;44.10;25.70;;;;;;;;;;4825604;29;20083;-76
2021/12/06 09:29:36;;;;;;;39.95;25.27;;;;;;;;;;4825957;29;20525;-76
2021/12/06 09:32:05;;;;;;;43.15;24.33;;;;;;;;;;4826004;29;20035;-75
2021/12/06 09:34:31;;;;;;;41.92;25.88;;;;;;;;;;4826169;29;20042;-74
2021/12/06 09:36:59;;;;;;;46.67;25.35;;;;;;;;;;4825599;29;20075;-76
2021/12/06 09:39:25;;;;;;;38.35;22.92;;;;;;;;;;4825135;29;20054;-74
2021/12/06 09:41:52;;;;;;;47.17;24.25;;;;;;;;;;4825779;29;20327;-74
2021/12/06 09:44:18;;;;;;;39.55;24.08;;;;;;;;;;4825817;29;20483;-74
2021/12/06 09:46:46;;;;;;;42.70;23.45;;;;;;;;;;4823965;29;20117;-75
2021/12/06 09:49:16;;;;;;;42.70;22.48;;;;;;;;;;4825472;29;20062;-75
2021/12/06 09:51:51;;;;;;;39.53;21.95;;;;;;;;;;4825096;29;20062;-74
2021/12/06 09:54:19;;;;;;;43.38;22.67;;;;;;;;;;4825240;29;21199;-74
2021/12/06 09:56:45;;;;;;;45.20;26.48;;;;;;;;;;4825282;29;20121;-69
2021/12/06 09:59:15;;;;;;;41.78;22.80;;;;;;;;;;4824865;29;20034;-73
2021/12/06 10:01:50;;;;;;;33.85;18.90;;;;;;;;;;4824483;29;20371;-76
2021/12/06 10:04:18;;;;;;;40.50;20.15;;;;;;;;;;4825297;29;20042;-73
2021/12/06 10:06:46;;;;;;;37.53;18.65;;;;;;;;;;4825263;29;20226;-76
2021/12/06 10:09:14;;;;;;;43.20;19.65;;;;;;;;;;4824464;29;20038;-73
2021/12/06 10:11:40;;;;;;;32.33;19.30;;;;;;;;;;4823315;29;20144;-74
2021/12/06 10:14:07;;;;;;;23.73;14.52;;;;;;;;;;4823841;29;20482;-73
2021/12/06 10:16:33;;;;;;;25.90;14.15;;;;;;;;;;4824115;29;20034;-72
2021/12/06 10:18:59;;;;;;;26.70;14.38;;;;;;;;;;4824487;29;20439;-70
2021/12/06 10:21:27;;;;;;;27.42;15.00;;;;;;;;;;4824695;29;20038;-72
2021/12/06 10:23:55;;;;;;;27.23;17.25;;;;;;;;;;4825083;29;20094;-73
2021/12/06 10:26:27;;;;;;;31.02;17.42;;;;;;;;;;4825049;29;20027;-70
2021/12/06 10:29:04;;;;;;;31.48;17.52;;;;;;;;;;4823859;29;20486;-70
2021/12/06 10:31:33;;;;;;;34.72;20.40;;;;;;;;;;4824307;29;20091;-70
2021/12/06 10:33:59;;;;;;;26.40;15.57;;;;;;;;;;4842259;29;20038;-70
2021/12/06 10:36:26;;;;;;;33.95;20.13;;;;;;;;;;4842959;29;20054;-70
2021/12/06 10:39:00;;;;;;;28.10;19.17;;;;;;;;;;4857011;29;20034;-70
2021/12/06 10:41:28;;;;;;;22.20;10.65;;;;;;;;;;4842806;29;20559;-71
2021/12/06 10:44:09;;;;;;;20.00;11.07;;;;;;;;;;4843416;29;20030;-69
2021/12/06 10:46:42;;;;;;;21.58;12.48;;;;;;;;;;4841748;29;20049;-70
2021/12/06 10:49:13;;;;;;;17.58;11.30;;;;;;;;;;4827208;29;20065;-70
2021/12/06 10:51:54;;;;;;;24.33;8.40;;;;;;;;;;4824503;29;20041;-67
2021/12/06 11:03:40;;;;;;;19.70;10.35;;;;;;;;;;4841606;29;20068;-71
2021/12/06 11:13:52;;;;;;;24.25;15.20;;;;;;;;;;4825921;29;20101;-76
2021/12/06 11:16:24;;;;;;;24.73;15.38;;;;;;;;;;4842014;29;20041;-76
2021/12/06 11:18:51;;;;;;;22.40;11.60;;;;;;;;;;4841839;29;20400;-72
2021/12/06 11:21:23;;;;;;;22.95;12.95;;;;;;;;;;4842102;29;20422;-72
2021/12/06 11:24:31;;;;;;;27.58;13.35;;;;;;;;;;4842043;29;20038;-75
2021/12/06 11:27:22;;;;;;;29.42;18.27;;;;;;;;;;4826186;29;20054;-75
2021/12/06 11:30:00;;;;;;;28.30;18.88;;;;;;;;;;4835287;29;20030;-72
2021/12/06 11:32:28;;;;;;;38.70;16.10;;;;;;;;;;4840850;29;20062;-73
2021/12/06 11:34:58;;;;;;;30.73;15.05;;;;;;;;;;4841290;29;20108;-77
2021/12/06 11:37:37;;;;;;;44.13;16.60;;;;;;;;;;4840371;29;20066;-73
2021/12/06 11:40:29;;;;;;;19.15;13.20;;;;;;;;;;4839596;29;20038;-76
2021/12/06 11:43:03;;;;;;;19.70;11.43;;;;;;;;;;4835751;29;20038;-73
2021/12/06 11:45:48;;;;;;;19.42;10.95;;;;;;;;;;4836951;29;20461;-76
2021/12/06 11:48:24;;;;;;;15.88;9.55;;;;;;;;;;4841058;29;20062;-71
2021/12/06 11:50:51;;;;;;;18.63;10.73;;;;;;;;;;4838845;29;20048;-72
2021/12/06 11:53:29;;;;;;;21.00;9.57;;;;;;;;;;4841238;29;20430;-75
2021/12/06 11:56:02;;;;;;;19.50;9.60;;;;;;;;;;4839778;29;20489;-70
2021/12/06 11:58:35;;;;;;;24.55;11.70;;;;;;;;;;4840708;29;20098;-69
2021/12/06 12:01:03;;;;;;;17.98;8.73;;;;;;;;;;4839582;29;20330;-73
2021/12/06 12:03:31;;;;;;;19.13;9.75;;;;;;;;;;4840936;29;20132;-70
2021/12/06 12:05:57;;;;;;;16.50;8.40;;;;;;;;;;4840924;29;20033;-71
2021/12/06 12:08:23;;;;;;;22.60;8.45;;;;;;;;;;4836308;29;20022;-69
2021/12/06 12:10:54;;;;;;;21.00;8.13;;;;;;;;;;4837595;29;20387;-70
2021/12/06 12:13:31;;;;;;;14.05;8.63;;;;;;;;;;4841125;29;20049;-70
2021/12/06 12:16:09;;;;;;;17.75;8.90;;;;;;;;;;4841136;29;20026;-70
2021/12/06 12:18:38;;;;;;;29.98;9.05;;;;;;;;;;4841245;29;20416;-69
2021/12/06 12:21:05;;;;;;;19.88;9.50;;;;;;;;;;4841552;29;20087;-69
2021/12/06 12:23:32;;;;;;;20.88;9.00;;;;;;;;;;4841406;29;20125;-70
2021/12/06 12:26:03;;;;;;;18.23;8.88;;;;;;;;;;4841341;29;20030;-71
2021/12/06 12:28:36;;;;;;;18.88;8.43;;;;;;;;;;4834372;29;20053;-70
2021/12/06 12:31:05;;;;;;;21.92;8.77;;;;;;;;;;4840063;29;20038;-69
2021/12/06 12:33:31;;;;;;;22.15;9.45;;;;;;;;;;4853934;29;20033;-72
2021/12/06 12:36:03;;;;;;;16.80;8.02;;;;;;;;;;4839203;29;20041;-72
2021/12/06 12:38:34;;;;;;;17.30;8.45;;;;;;;;;;4840101;29;20060;-71
2021/12/06 12:41:03;;;;;;;15.32;8.55;;;;;;;;;;4840096;29;20084;-71
2021/12/06 12:43:35;;;;;;;16.75;7.05;;;;;;;;;;4840130;29;20043;-69
2021/12/06 12:46:08;;;;;;;20.65;7.60;;;;;;;;;;4840942;29;20090;-70
2021/12/06 12:48:59;;;;;;;18.17;6.72;;;;;;;;;;4840899;29;20100;-69
2021/12/06 12:51:29;;;;;;;16.95;6.82;;;;;;;;;;4841161;29;20483;-72
2021/12/06 12:53:59;;;;;;;17.08;6.22;;;;;;;;;;4840886;29;20038;-71
2021/12/06 12:56:48;;;;;;;30.50;8.40;;;;;;;;;;4841964;29;20045;-70
2021/12/06 12:59:23;;;;;;;17.23;7.25;;;;;;;;;;4844195;29;20038;-69
2021/12/06 13:02:20;;;;;;;17.95;6.88;;;;;;;;;;4843377;29;20129;-70
2021/12/06 13:04:57;;;;;;;22.80;7.88;;;;;;;;;;4838603;29;20050;-75
2021/12/06 13:07:30;;;;;;;24.88;8.65;;;;;;;;;;4839785;29;20048;-78
2021/12/06 13:09:58;;;;;;;27.38;13.95;;;;;;;;;;4840275;29;20505;-77
2021/12/06 13:12:31;;;;;;;36.45;20.20;;;;;;;;;;4839610;29;20083;-75
2021/12/06 13:15:16;;;;;;;17.77;9.38;;;;;;;;;;4840003;29;20042;-75
2021/12/06 13:17:47;;;;;;;13.93;7.72;;;;;;;;;;4838006;29;20404;-72
2021/12/06 13:20:22;;;;;;;17.52;7.70;;;;;;;;;;4838471;29;20098;-72
2021/12/06 13:22:53;;;;;;;17.08;7.72;;;;;;;;;;4838229;29;20073;-79
2021/12/06 13:25:37;;;;;;;15.18;8.30;;;;;;;;;;4839382;29;20046;-76
2021/12/06 13:28:07;;;;;;;22.00;12.77;;;;;;;;;;4839561;29;20125;-77
2021/12/06 13:30:47;;;;;;;25.13;14.13;;;;;;;;;;4839564;29;20110;-77
2021/12/06 13:33:16;;;;;;;25.98;13.20;;;;;;;;;;4839371;29;20069;-76
2021/12/06 13:35:52;;;;;;;24.05;12.90;;;;;;;;;;4839439;29;20086;-72
2021/12/06 13:38:23;;;;;;;22.80;10.80;;;;;;;;;;4841782;29;20042;-77
2021/12/06 13:40:58;;;;;;;18.63;10.90;;;;;;;;;;4842675;29;20030;-76
2021/12/06 13:43:41;;;;;;;22.88;11.55;;;;;;;;;;4841923;29;20082;-77
2021/12/06 13:46:09;;;;;;;19.83;10.57;;;;;;;;;;4840817;29;20041;-76
2021/12/06 13:48:44;;;;;;;22.45;11.70;;;;;;;;;;4842095;29;20042;-77
2021/12/06 13:51:39;;;;;;;27.65;13.57;;;;;;;;;;4842409;29;20136;-73
2021/12/06 13:54:11;;;;;;;23.20;10.52;;;;;;;;;;4842789;29;20045;-77
2021/12/06 13:57:05;;;;;;;20.27;10.05;;;;;;;;;;4842530;29;20038;-76
2021/12/06 13:59:41;;;;;;;15.50;8.93;;;;;;;;;;4842370;29;20511;-76
2021/12/06 14:02:13;;;;;;;24.77;11.18;;;;;;;;;;4842083;29;20049;-76
2021/12/06 14:04:43;;;;;;;20.90;10.93;;;;;;;;;;4842410;29;20038;-77
2021/12/06 14:07:11;;;;;;;29.00;15.80;;;;;;;;;;4842423;29;20042;-74
2021/12/06 14:09:42;;;;;;;20.88;10.77;;;;;;;;;;4842730;29;20061;-75
2021/12/06 14:12:12;;;;;;;20.38;12.32;;;;;;;;;;4841989;29;20470;-78
2021/12/06 14:14:40;;;;;;;22.27;12.60;;;;;;;;;;4842223;29;20401;-75
2021/12/06 14:17:11;;;;;;;18.38;10.43;;;;;;;;;;4842048;29;20029;-76
2021/12/06 14:19:38;;;;;;;15.60;9.60;;;;;;;;;;4842623;29;20477;-76
2021/12/06 14:22:06;;;;;;;17.05;9.73;;;;;;;;;;4841626;29;20042;-76
2021/12/06 14:24:35;;;;;;;14.15;8.10;;;;;;;;;;4841818;29;20079;-71
2021/12/06 14:27:01;;;;;;;21.30;9.57;;;;;;;;;;4842122;29;20034;-72
2021/12/06 14:29:29;;;;;;;20.00;9.35;;;;;;;;;;4841510;29;20118;-70
2021/12/06 14:31:58;;;;;;;17.65;9.02;;;;;;;;;;4841412;29;20041;-70
2021/12/06 14:34:28;;;;;;;17.17;9.63;;;;;;;;;;4841297;29;20060;-71
2021/12/06 14:36:55;;;;;;;19.20;8.93;;;;;;;;;;4836467;29;20038;-72
2021/12/06 14:39:23;;;;;;;20.65;9.05;;;;;;;;;;4823234;29;20030;-70
2021/12/06 14:41:59;;;;;;;16.77;8.27;;;;;;;;;;4823940;29;20034;-69
2021/12/06 14:44:50;;;;;;;15.80;7.60;;;;;;;;;;4823406;29;20039;-73
2021/12/06 14:47:24;;;;;;;13.70;8.18;;;;;;;;;;4822006;29;20045;-69
2021/12/06 14:49:52;;;;;;;17.23;8.88;;;;;;;;;;4840355;29;20545;-74
2021/12/06 14:52:24;;;;;;;19.85;9.85;;;;;;;;;;4840697;29;20029;-76
2021/12/06 14:55:23;;;;;;;21.60;11.13;;;;;;;;;;4839830;29;20072;-76
2021/12/06 14:57:50;;;;;;;24.73;12.45;;;;;;;;;;4838481;29;20084;-73
2021/12/06 15:00:38;;;;;;;26.85;14.98;;;;;;;;;;4836088;29;20034;-75
2021/12/06 15:03:06;;;;;;;20.15;12.10;;;;;;;;;;4831990;29;20069;-78